Terminal Aerodrome Forecast
Issued by NWS Memphis, TN

Current Version | Previous Version | Text Only | Print | Product List | Glossary On
Versions: 1 2 3 4 5 6 7 8 9 10 11 12 13 14 15
000
FTUS44 KMEG 271433 AAB
TAFJBR
TAF AMD
KJBR 271433Z 2715/2812 31008KT P6SM BKN020
     FM271600 34008KT P6SM BKN035
     FM271900 35006KT P6SM SCT050 SCT250
     FM280000 00000KT P6SM SCT250
     FM280500 00000KT P6SM BKN150=

USA.gov is the U.S. government's official web portal to all federal, state and local government web resources and services.